Pagrindinis puslapis
METAR-TAF:

METAR-TAF

Oro uostai :

Ajakučas, Peru

platuma: 13-08S, ilguma: 074-13W, Aukštis: 2740 m

Dabartinis oras

Ataskaita buvo paskelbta 51 minutes, ne 13:00 UTC
Vėjas 1 kt iš Šiaurės
Temperatūra 16°C
Drėgmė 48%
Slėgis 1028 hPa
Matomumas: 8000 m
Mažai debesys ne aukštis 4000 ft
Su prošvaistėmis ne aukštis 8000 ft

METAR: SPHO 201300Z 35001KT 8000 FEW040 BKN080 16/05 Q1028 RMK HZ PP000

Laikas: 08:51 (13:51 UTC)

Prognozė

Ataskaita buvo paskelbta 2 valandos ir 51 minutes, ne 11:00 UTC
Prognozė galioja nuo 20 metu 12 UTC su 21 metu 12 UTC
Vėjas 2 kt iš Šiaurės
Matomumas 10 km arba daugiau
Mažai debesys ne aukštis 4000 ft
Su prošvaistėmis ne aukštis 8000 ft
Laikinai
nuo 20 metu 18 UTC su 20 metu 22 UTC
Vėjas 12 kt iš Šiaurės

TAF: SPHO 201100Z 2012/2112 36002KT 9999 FEW040 BKN080 TX25/2020Z TN13/2111Z TEMPO 2018/2022 36012KT

Orai ataskaitas ir orų prognozės (METAR, TAF).

turimą stotys yra geltonos ir raudonos taškus žemėlapyje.

Perkelti pele per norėdami pamatyti stoties vardą.

Tada spustelėkite, norėdami matyti oro stebėjimo ir prognozės.

Norėdami pakeisti žemėlapį: spustelėkite ant žalios mygtukų su juodo kryžiaus žemyn,; žalią mygtuką su brūkšneliu, jei norite nutolinti; arba žalių rodyklių gretimoms žemėlapius.


METAR-TAF: